createdAt,value
2019-02-21T00:00:47.132Z,97545.63
2019-02-21T00:03:18.588Z,97552.34
2019-02-21T00:05:49.814Z,97549.72
2019-02-21T00:08:20.797Z,97553.64
2019-02-21T00:10:52.014Z,97553.16
2019-02-21T00:13:23.900Z,97560.70
2019-02-21T00:15:54.888Z,97559.55
2019-02-21T00:18:26.337Z,97561.50
2019-02-21T00:20:57.383Z,97563.44
2019-02-21T00:23:28.689Z,97565.22
2019-02-21T00:26:00.567Z,97560.50
2019-02-21T00:28:31.807Z,97563.91
2019-02-21T00:31:02.845Z,97566.09
2019-02-21T00:33:34.209Z,97566.73
2019-02-21T00:36:05.249Z,97569.69
2019-02-21T00:38:36.218Z,97567.83
2019-02-21T00:41:07.553Z,97568.97
2019-02-21T00:43:39.855Z,97573.52
2019-02-21T00:46:11.154Z,97570.88
2019-02-21T00:48:42.156Z,97570.23
2019-02-21T00:51:13.116Z,97573.22
2019-02-21T00:53:44.519Z,97570.59
2019-02-21T00:56:15.498Z,97575.20
2019-02-21T00:58:46.653Z,97576.66
2019-02-21T01:01:20.770Z,97578.11
2019-02-21T01:03:50.989Z,97578.55
2019-02-21T01:06:22.244Z,97581.67
2019-02-21T01:08:53.304Z,97577.05
2019-02-21T01:11:24.567Z,97568.23
2019-02-21T01:13:55.717Z,97570.53
2019-02-21T01:16:26.940Z,97572.53
2019-02-21T01:18:57.999Z,97567.28
2019-02-21T01:21:29.525Z,97565.98
2019-02-21T01:24:01.161Z,97563.63
2019-02-21T01:26:33.135Z,97559.97
2019-02-21T01:29:04.381Z,97561.30
2019-02-21T01:31:35.701Z,97563.64
2019-02-21T01:34:06.992Z,97562.86
2019-02-21T01:36:37.970Z,97557.13
2019-02-21T01:39:09.312Z,97563.33
2019-02-21T01:41:40.857Z,97561.00
2019-02-21T01:44:12.481Z,97565.26
2019-02-21T01:46:44.974Z,97565.06
2019-02-21T01:49:16.611Z,97566.80
2019-02-21T01:51:47.940Z,97569.73
2019-02-21T01:54:18.928Z,97564.25
2019-02-21T01:56:50.446Z,97565.98
2019-02-21T01:59:21.425Z,97566.06
2019-02-21T02:01:53.047Z,97572.39
2019-02-21T02:04:24.207Z,97580.42
2019-02-21T02:06:55.242Z,97575.45
2019-02-21T02:09:28.212Z,97569.12
2019-02-21T02:11:59.460Z,97568.80
2019-02-21T02:14:31.303Z,97560.40
2019-02-21T02:17:02.589Z,97563.86
2019-02-21T02:19:33.641Z,97561.90
2019-02-21T02:22:04.774Z,97562.75
2019-02-21T02:24:36.951Z,97569.83
2019-02-21T02:27:08.390Z,97560.16
2019-02-21T02:29:39.624Z,97566.32
2019-02-21T02:32:12.166Z,97568.78
2019-02-21T02:34:43.805Z,97568.78
2019-02-21T02:37:15.015Z,97567.45
2019-02-21T02:39:46.427Z,97575.89
2019-02-21T02:42:19.280Z,97575.56
2019-02-21T02:44:50.605Z,97569.70
2019-02-21T02:47:22.233Z,97562.67
2019-02-21T02:49:53.831Z,97562.95
2019-02-21T02:52:25.443Z,97560.19
2019-02-21T02:54:57.465Z,97559.23
2019-02-21T02:57:28.766Z,97553.51
2019-02-21T03:00:00.135Z,97567.01
2019-02-21T03:02:31.373Z,97570.71
2019-02-21T03:05:02.685Z,97575.44
2019-02-21T03:07:33.950Z,97574.06
2019-02-21T03:10:07.500Z,97578.77
2019-02-21T03:12:38.615Z,97574.75
2019-02-21T03:15:10.225Z,97580.00
2019-02-21T03:17:41.247Z,97578.83
2019-02-21T03:20:12.469Z,97575.72
2019-02-21T03:22:44.702Z,97582.27
2019-02-21T03:25:15.680Z,97582.48
2019-02-21T03:27:47.115Z,97588.14
2019-02-21T03:30:18.654Z,97584.58
2019-02-21T03:32:49.994Z,97590.55
2019-02-21T03:35:21.245Z,97587.89
2019-02-21T03:37:52.764Z,97578.88
2019-02-21T03:40:24.037Z,97584.75
2019-02-21T03:42:55.320Z,97587.77
2019-02-21T03:45:26.567Z,97580.73
2019-02-21T03:47:58.218Z,97587.94
2019-02-21T03:50:29.776Z,97589.47
2019-02-21T03:53:00.829Z,97585.70
2019-02-21T03:55:31.883Z,97592.36
2019-02-21T03:58:03.554Z,97589.22
2019-02-21T04:00:35.398Z,97589.55
2019-02-21T04:03:06.397Z,97588.47
2019-02-21T04:05:37.811Z,97588.80
2019-02-21T04:08:09.443Z,97590.34
2019-02-21T04:10:40.689Z,97588.06
2019-02-21T04:13:14.921Z,97593.73
2019-02-21T04:15:45.781Z,97597.95
2019-02-21T04:18:17.118Z,97596.84
2019-02-21T04:20:48.687Z,97597.23
2019-02-21T04:23:19.983Z,97598.03
2019-02-21T04:25:51.480Z,97595.80
2019-02-21T04:28:22.826Z,97592.56
2019-02-21T04:30:54.393Z,97595.69
2019-02-21T04:33:26.244Z,97590.45
2019-02-21T04:35:57.841Z,97596.98
2019-02-21T04:38:30.389Z,97596.73
2019-02-21T04:41:02.040Z,97601.03
2019-02-21T04:43:33.099Z,97594.86
2019-02-21T04:46:04.441Z,97593.48
2019-02-21T04:48:35.799Z,97586.61
2019-02-21T04:51:06.945Z,97597.70
2019-02-21T04:53:37.962Z,97597.23
2019-02-21T04:56:09.034Z,97603.08
2019-02-21T04:58:41.210Z,97609.91
2019-02-21T05:01:12.647Z,97606.84
2019-02-21T05:03:45.349Z,97607.09
2019-02-21T05:06:17.196Z,97607.55
2019-02-21T05:08:49.503Z,97614.20
2019-02-21T05:11:20.778Z,97614.63
2019-02-21T05:13:53.567Z,97609.98
2019-02-21T05:16:25.447Z,97613.84
2019-02-21T05:18:57.110Z,97612.88
2019-02-21T05:24:15.543Z,97614.83
2019-02-21T05:26:51.116Z,97610.58
2019-02-21T05:29:22.341Z,97612.88
2019-02-21T05:32:04.016Z,97609.08
2019-02-21T05:35:03.242Z,97604.38
2019-02-21T05:37:44.150Z,97613.61
2019-02-21T05:40:34.157Z,97607.53
2019-02-21T05:43:17.078Z,97611.80
2019-02-21T05:46:06.413Z,97604.12
2019-02-21T05:48:51.044Z,97601.36
2019-02-21T05:51:30.689Z,97598.75
2019-02-21T05:54:21.632Z,97611.92
2019-02-21T05:57:06.221Z,97613.21
2019-02-21T06:00:08.388Z,97606.72
2019-02-21T06:02:53.493Z,97611.50
2019-02-21T06:05:28.699Z,97615.33
2019-02-21T06:08:25.555Z,97611.53
2019-02-21T06:11:04.334Z,97615.23
2019-02-21T06:14:09.500Z,97616.72
2019-02-21T06:17:01.718Z,97619.66
2019-02-21T06:19:47.973Z,97625.73
2019-02-21T06:22:46.462Z,97626.27
2019-02-21T06:25:32.562Z,97629.11
2019-02-21T06:28:25.544Z,97622.55
2019-02-21T06:31:00.516Z,97625.34
2019-02-21T06:33:31.927Z,97626.47
2019-02-21T06:36:03.398Z,97630.89
2019-02-21T06:38:36.197Z,97634.88
2019-02-21T06:41:07.221Z,97636.83
2019-02-21T06:43:38.554Z,97640.45
2019-02-21T06:46:10.171Z,97644.63
2019-02-21T06:48:41.334Z,97649.27
2019-02-21T06:51:12.776Z,97649.83
2019-02-21T06:53:43.753Z,97657.02
2019-02-21T06:56:14.723Z,97660.65
2019-02-21T06:58:46.331Z,97664.70
2019-02-21T07:01:26.698Z,97662.34
2019-02-21T07:03:50.659Z,97665.38
2019-02-21T07:06:31.539Z,97671.47
2019-02-21T07:08:54.343Z,97675.95
2019-02-21T07:11:25.816Z,97676.39
2019-02-21T07:13:57.264Z,97682.13
2019-02-21T07:16:28.449Z,97685.09
2019-02-21T07:18:59.897Z,97689.42
2019-02-21T07:21:31.306Z,97689.09
2019-02-21T07:24:02.307Z,97688.12
2019-02-21T07:26:33.406Z,97688.55
2019-02-21T07:29:04.383Z,97687.95
2019-02-21T07:31:35.421Z,97684.39
2019-02-21T07:34:07.145Z,97683.50
2019-02-21T07:36:38.612Z,97684.81
2019-02-21T07:39:17.464Z,97684.39
2019-02-21T07:41:42.916Z,97681.97
2019-02-21T07:44:14.504Z,97683.20
2019-02-21T07:46:46.342Z,97680.69
2019-02-21T07:49:17.765Z,97684.34
2019-02-21T07:51:49.160Z,97678.52
2019-02-21T07:54:21.009Z,97680.38
2019-02-21T07:56:52.981Z,97676.79
2019-02-21T07:59:23.950Z,97688.94
2019-02-21T08:01:55.884Z,97678.83
2019-02-21T08:04:27.101Z,97681.45
2019-02-21T08:06:58.379Z,97681.19
2019-02-21T08:09:29.436Z,97681.24
2019-02-21T08:12:00.969Z,97687.14
2019-02-21T08:14:32.331Z,97687.16
2019-02-21T08:17:03.372Z,97694.72
2019-02-21T08:19:34.532Z,97700.11
2019-02-21T08:22:05.750Z,97697.83
2019-02-21T08:24:36.717Z,97698.80
2019-02-21T08:27:07.680Z,97693.09
2019-02-21T08:29:39.285Z,97693.10
2019-02-21T08:32:12.134Z,97699.48
2019-02-21T08:34:48.183Z,97693.08
2019-02-21T08:37:18.773Z,97697.83
2019-02-21T08:39:50.668Z,97700.13
2019-02-21T08:42:22.375Z,97697.67
2019-02-21T08:44:55.054Z,97692.73
2019-02-21T08:47:26.124Z,97692.73
2019-02-21T08:49:59.601Z,97691.05
2019-02-21T08:52:30.297Z,97701.48
2019-02-21T08:55:01.611Z,97698.17
2019-02-21T08:57:32.579Z,97698.13
2019-02-21T09:00:03.690Z,97697.63
2019-02-21T09:02:36.009Z,97701.30
2019-02-21T09:05:09.469Z,97698.23
2019-02-21T09:07:40.692Z,97693.28
2019-02-21T09:10:12.643Z,97700.30
2019-02-21T09:12:48.083Z,97698.34
2019-02-21T09:15:17.483Z,97702.53
2019-02-21T09:17:48.451Z,97701.56
2019-02-21T09:20:20.698Z,97696.66
2019-02-21T09:22:51.897Z,97700.01
2019-02-21T09:25:22.882Z,97697.98
2019-02-21T09:27:54.088Z,97698.72
2019-02-21T09:30:25.142Z,97703.02
2019-02-21T09:32:56.410Z,97699.53
2019-02-21T09:35:27.662Z,97707.74
2019-02-21T09:37:58.745Z,97698.02
2019-02-21T09:40:29.810Z,97698.05
2019-02-21T09:43:01.405Z,97703.22
2019-02-21T09:45:33.189Z,97700.83
2019-02-21T09:48:04.229Z,97696.88
2019-02-21T09:50:35.275Z,97697.53
2019-02-21T09:53:06.299Z,97703.30
2019-02-21T09:55:37.291Z,97704.38
2019-02-21T09:58:08.395Z,97702.73
2019-02-21T10:00:39.449Z,97703.02
2019-02-21T10:03:10.492Z,97708.06
2019-02-21T10:05:41.894Z,97701.50
2019-02-21T10:08:12.864Z,97711.73
2019-02-21T10:10:44.182Z,97711.57
2019-02-21T10:13:15.742Z,97714.52
2019-02-21T10:15:47.225Z,97711.41
2019-02-21T10:18:18.537Z,97713.04
2019-02-21T10:20:49.600Z,97711.03
2019-02-21T10:23:21.364Z,97709.97
2019-02-21T10:25:52.418Z,97711.40
2019-02-21T10:28:23.722Z,97713.05
2019-02-21T10:30:54.704Z,97713.55
2019-02-21T10:33:26.594Z,97713.33
2019-02-21T10:36:00.440Z,97707.44
2019-02-21T10:38:30.652Z,97707.80
2019-02-21T10:41:01.739Z,97714.34
2019-02-21T10:43:33.723Z,97708.40
2019-02-21T10:46:04.775Z,97704.16
2019-02-21T10:48:36.094Z,97702.85
2019-02-21T10:51:07.160Z,97705.61
2019-02-21T10:53:38.383Z,97693.32
2019-02-21T10:56:09.801Z,97697.92
2019-02-21T10:58:40.797Z,97696.41
2019-02-21T11:01:12.179Z,97691.20
2019-02-21T11:03:43.523Z,97697.42
2019-02-21T11:06:14.542Z,97694.00
2019-02-21T11:08:45.806Z,97692.88
2019-02-21T11:11:17.330Z,97688.70
2019-02-21T11:13:48.450Z,97673.50
2019-02-21T11:16:19.760Z,97676.15
2019-02-21T11:18:51.918Z,97676.50
2019-02-21T11:21:22.891Z,97668.42
2019-02-21T11:23:54.229Z,97675.41
2019-02-21T11:26:25.591Z,97670.11
2019-02-21T11:28:56.885Z,97670.94
2019-02-21T11:31:28.065Z,97665.02
2019-02-21T11:33:59.022Z,97670.29
2019-02-21T11:36:29.997Z,97668.61
2019-02-21T11:39:01.200Z,97661.27
2019-02-21T11:41:34.739Z,97654.30
2019-02-21T11:44:05.838Z,97653.50
2019-02-21T11:46:36.834Z,97654.88
2019-02-21T11:49:08.255Z,97655.02
2019-02-21T11:51:39.270Z,97652.08
2019-02-21T11:54:10.287Z,97649.05
2019-02-21T11:56:41.264Z,97653.27
2019-02-21T11:59:16.038Z,97652.11
2019-02-21T12:01:46.513Z,97653.10
2019-02-21T12:04:17.573Z,97648.17
2019-02-21T12:06:48.711Z,97652.98
2019-02-21T12:09:19.836Z,97643.48
2019-02-21T12:11:51.821Z,97646.05
2019-02-21T12:14:23.152Z,97639.93
2019-02-21T12:16:54.137Z,97640.69
2019-02-21T12:19:25.411Z,97641.73
2019-02-21T12:21:59.335Z,97637.52
2019-02-21T12:24:29.078Z,97630.72
2019-02-21T12:27:00.078Z,97639.39
2019-02-21T12:29:31.296Z,97633.80
2019-02-21T12:32:02.593Z,97629.12
2019-02-21T12:34:34.117Z,97629.95
2019-02-21T12:37:05.142Z,97633.30
2019-02-21T12:39:36.421Z,97632.02
2019-02-21T12:42:07.492Z,97624.39
2019-02-21T12:44:38.738Z,97624.18
2019-02-21T12:47:09.737Z,97620.00
2019-02-21T12:49:40.805Z,97615.56
2019-02-21T12:52:11.859Z,97620.74
2019-02-21T12:54:42.835Z,97621.20
2019-02-21T12:57:14.054Z,97617.52
2019-02-21T12:59:45.454Z,97623.53
2019-02-21T13:02:16.441Z,97622.29
2019-02-21T13:04:47.670Z,97614.53
2019-02-21T13:07:18.718Z,97617.14
2019-02-21T13:09:49.698Z,97614.83
2019-02-21T13:12:21.722Z,97614.66
2019-02-21T13:14:53.050Z,97612.00
2019-02-21T13:17:24.031Z,97607.39
2019-02-21T13:19:55.836Z,97613.61
2019-02-21T13:22:30.148Z,97612.91
2019-02-21T13:25:01.618Z,97610.66
2019-02-21T13:27:34.716Z,97611.03
2019-02-21T13:30:08.097Z,97610.42
2019-02-21T13:32:39.069Z,97601.96
2019-02-21T13:35:10.583Z,97606.55
2019-02-21T13:37:41.961Z,97608.63
2019-02-21T13:40:14.330Z,97610.94
2019-02-21T13:42:45.775Z,97610.98
2019-02-21T13:45:17.944Z,97612.39
2019-02-21T13:47:49.683Z,97606.30
2019-02-21T13:50:23.874Z,97602.61
2019-02-21T13:52:54.550Z,97607.09
2019-02-21T13:55:25.770Z,97602.66
2019-02-21T13:57:57.532Z,97600.50
2019-02-21T14:00:29.077Z,97607.27
2019-02-21T14:03:00.548Z,97599.27
2019-02-21T14:05:31.520Z,97600.59
2019-02-21T14:08:02.761Z,97599.48
2019-02-21T14:10:34.034Z,97603.17
2019-02-21T14:13:05.428Z,97598.53
2019-02-21T14:15:36.772Z,97598.16
2019-02-21T14:18:07.751Z,97593.69
2019-02-21T14:20:45.397Z,97596.67
2019-02-21T14:23:12.343Z,97602.05
2019-02-21T14:25:46.378Z,97601.50
2019-02-21T14:28:20.101Z,97593.80
2019-02-21T14:30:52.079Z,97603.80
2019-02-21T14:33:23.407Z,97594.14
2019-02-21T14:35:55.039Z,97597.59
2019-02-21T14:38:28.213Z,97604.02
2019-02-21T14:40:59.982Z,97606.99
2019-02-21T14:43:31.079Z,97612.25
2019-02-21T14:46:02.606Z,97618.22
2019-02-21T14:48:34.643Z,97617.09
2019-02-21T14:51:05.802Z,97604.02
2019-02-21T14:53:37.684Z,97603.77
2019-02-21T14:56:08.934Z,97612.67
2019-02-21T14:58:40.761Z,97611.80
2019-02-21T15:01:12.503Z,97610.06
2019-02-21T15:03:43.968Z,97612.62
2019-02-21T15:06:26.537Z,97615.95
2019-02-21T15:08:48.013Z,97617.02
2019-02-21T15:11:19.636Z,97618.23
2019-02-21T15:13:51.306Z,97614.62
2019-02-21T15:16:22.372Z,97616.44
2019-02-21T15:18:55.346Z,97627.75
2019-02-21T15:21:26.480Z,97632.67
2019-02-21T15:23:57.529Z,97629.85
2019-02-21T15:26:28.502Z,97636.98
2019-02-21T15:29:00.123Z,97637.92
2019-02-21T15:31:31.176Z,97642.72
2019-02-21T15:34:02.437Z,97635.20
2019-02-21T15:36:38.323Z,97640.01
2019-02-21T15:39:09.945Z,97640.70
2019-02-21T15:41:40.958Z,97640.63
2019-02-21T15:44:12.298Z,97636.23
2019-02-21T15:46:43.347Z,97641.36
2019-02-21T15:49:14.620Z,97645.73
2019-02-21T15:51:45.759Z,97640.46
2019-02-21T15:54:16.734Z,97644.34
2019-02-21T15:56:47.728Z,97648.31
2019-02-21T15:59:19.209Z,97649.22
2019-02-21T16:01:50.222Z,97645.17
2019-02-21T16:04:22.705Z,97652.00
2019-02-21T16:06:54.330Z,97648.66
2019-02-21T16:09:25.608Z,97646.70
2019-02-21T16:11:57.626Z,97644.07
2019-02-21T16:14:28.718Z,97651.11
2019-02-21T16:16:59.999Z,97645.20
2019-02-21T16:19:31.282Z,97648.66
2019-02-21T16:22:02.337Z,97655.08
2019-02-21T16:24:33.339Z,97662.84
2019-02-21T16:27:04.709Z,97666.88
2019-02-21T16:29:36.367Z,97663.81
2019-02-21T16:32:07.339Z,97664.94
2019-02-21T16:34:38.370Z,97664.84
2019-02-21T16:37:09.700Z,97665.14
2019-02-21T16:39:40.786Z,97667.69
2019-02-21T16:42:12.079Z,97665.24
2019-02-21T16:44:43.434Z,97663.59
2019-02-21T16:47:14.489Z,97659.65
2019-02-21T16:49:45.538Z,97661.47
2019-02-21T16:52:16.882Z,97667.45
2019-02-21T16:54:48.263Z,97666.84
2019-02-21T16:57:19.234Z,97667.34
2019-02-21T16:59:50.518Z,97675.25
2019-02-21T17:02:22.736Z,97677.34
2019-02-21T17:04:55.855Z,97677.14
2019-02-21T17:07:27.049Z,97677.59
2019-02-21T17:09:58.890Z,97684.01
2019-02-21T17:12:30.156Z,97682.23
2019-02-21T17:15:01.458Z,97686.88
2019-02-21T17:17:33.263Z,97688.72
2019-02-21T17:20:05.275Z,97693.56
2019-02-21T17:22:37.662Z,97692.35
2019-02-21T17:25:10.399Z,97698.06
2019-02-21T17:27:42.321Z,97705.24
2019-02-21T17:30:16.356Z,97703.81
2019-02-21T17:32:47.598Z,97712.59
2019-02-21T17:35:18.994Z,97713.38
2019-02-21T17:37:50.280Z,97719.03
2019-02-21T17:40:23.754Z,97723.66
2019-02-21T17:42:54.892Z,97722.98
2019-02-21T17:45:25.892Z,97732.47
2019-02-21T17:47:57.187Z,97732.87
2019-02-21T17:50:28.623Z,97733.19
2019-02-21T17:52:59.698Z,97732.95
2019-02-21T17:55:31.430Z,97730.31
2019-02-21T17:58:02.630Z,97727.73
2019-02-21T18:00:36.341Z,97732.95
2019-02-21T18:03:07.485Z,97737.61
2019-02-21T18:05:38.501Z,97741.81
2019-02-21T18:08:09.811Z,97743.16
2019-02-21T18:10:41.045Z,97746.75
2019-02-21T18:13:12.511Z,97752.77
2019-02-21T18:15:43.604Z,97755.86
2019-02-21T18:18:14.700Z,97751.66
2019-02-21T18:20:46.043Z,97754.84
2019-02-21T18:23:17.008Z,97752.70
2019-02-21T18:26:05.731Z,97753.16
2019-02-21T18:28:37.700Z,97758.56
2019-02-21T18:31:20.620Z,97759.78
2019-02-21T18:33:52.419Z,97762.19
2019-02-21T18:36:23.445Z,97771.28
2019-02-21T18:38:54.438Z,97766.16
2019-02-21T18:41:25.743Z,97770.81
2019-02-21T18:43:57.074Z,97771.48
2019-02-21T18:46:28.090Z,97773.45
2019-02-21T18:48:59.353Z,97769.19
2019-02-21T18:51:30.938Z,97774.75
2019-02-21T18:54:01.958Z,97775.70
2019-02-21T18:56:33.343Z,97771.12
2019-02-21T18:59:04.357Z,97776.03
2019-02-21T19:01:36.011Z,97775.14
2019-02-21T19:04:07.331Z,97770.63
2019-02-21T19:06:38.654Z,97770.63
2019-02-21T19:09:10.338Z,97767.33
2019-02-21T19:11:41.732Z,97775.31
2019-02-21T19:14:13.130Z,97770.58
2019-02-21T19:16:45.001Z,97769.84
2019-02-21T19:19:16.058Z,97775.67
2019-02-21T19:21:47.482Z,97781.07
2019-02-21T19:24:18.566Z,97775.66
2019-02-21T19:26:50.694Z,97770.69
2019-02-21T19:29:22.657Z,97770.52
2019-02-21T19:31:53.676Z,97770.33
2019-02-21T19:34:25.496Z,97766.50
2019-02-21T19:36:56.789Z,97769.67
2019-02-21T19:39:28.155Z,97775.06
2019-02-21T19:41:59.967Z,97769.42
2019-02-21T19:44:31.466Z,97776.50
2019-02-21T19:47:02.859Z,97776.50
2019-02-21T19:49:34.165Z,97773.73
2019-02-21T19:52:05.548Z,97778.48
2019-02-21T19:54:36.690Z,97783.98
2019-02-21T19:57:07.949Z,97777.95
2019-02-21T19:59:39.251Z,97775.37
2019-02-21T20:02:10.341Z,97776.80
2019-02-21T20:04:41.467Z,97777.28
2019-02-21T20:07:12.619Z,97780.19
2019-02-21T20:09:43.835Z,97780.31
2019-02-21T20:12:14.850Z,97783.53
2019-02-21T20:14:45.966Z,97781.91
2019-02-21T20:17:17.389Z,97784.37
2019-02-21T20:19:48.357Z,97777.36
2019-02-21T20:22:19.402Z,97780.83
2019-02-21T20:24:50.801Z,97780.83
2019-02-21T20:27:23.112Z,97790.02
2019-02-21T20:29:54.410Z,97786.11
2019-02-21T20:32:25.707Z,97792.31
2019-02-21T20:34:56.729Z,97790.91
2019-02-21T20:37:27.902Z,97794.86
2019-02-21T20:39:59.283Z,97795.33
2019-02-21T20:42:31.624Z,97802.45
2019-02-21T20:45:02.911Z,97808.91
2019-02-21T20:47:34.014Z,97807.98
2019-02-21T20:50:05.328Z,97812.08
2019-02-21T20:52:37.009Z,97814.70
2019-02-21T20:55:08.420Z,97818.56
2019-02-21T20:57:39.893Z,97818.08
2019-02-21T21:00:12.789Z,97816.67
2019-02-21T21:02:44.550Z,97815.84
2019-02-21T21:05:16.265Z,97816.54
2019-02-21T21:07:47.358Z,97819.48
2019-02-21T21:10:20.279Z,97823.08
2019-02-21T21:12:52.603Z,97827.08
2019-02-21T21:15:23.736Z,97828.05
2019-02-21T21:17:55.583Z,97833.19
2019-02-21T21:20:26.901Z,97828.70
2019-02-21T21:22:57.907Z,97839.19
2019-02-21T21:25:31.861Z,97837.23
2019-02-21T21:28:02.388Z,97833.28
2019-02-21T21:30:34.647Z,97839.34
2019-02-21T21:33:06.010Z,97835.87
2019-02-21T21:35:37.469Z,97840.29
2019-02-21T21:38:08.809Z,97839.59
2019-02-21T21:40:41.435Z,97844.78
2019-02-21T21:43:12.455Z,97849.82
2019-02-21T21:45:43.742Z,97847.28
2019-02-21T21:48:14.982Z,97847.33
2019-02-21T21:50:46.293Z,97859.23
2019-02-21T21:53:17.282Z,97850.18
2019-02-21T21:55:49.428Z,97856.63
2019-02-21T21:58:20.664Z,97856.55
2019-02-21T22:00:53.426Z,97855.70
2019-02-21T22:03:25.061Z,97860.55
2019-02-21T22:05:56.186Z,97864.97
2019-02-21T22:08:27.355Z,97861.33
2019-02-21T22:10:58.677Z,97860.14
2019-02-21T22:13:29.929Z,97867.22
2019-02-21T22:16:00.924Z,97864.97
2019-02-21T22:18:32.220Z,97862.78
2019-02-21T22:21:03.278Z,97862.56
2019-02-21T22:23:34.334Z,97864.59
2019-02-21T22:26:05.364Z,97857.55
2019-02-21T22:28:36.506Z,97858.38
2019-02-21T22:31:08.508Z,97852.91
2019-02-21T22:33:40.010Z,97854.56
2019-02-21T22:36:11.250Z,97862.47
2019-02-21T22:38:42.589Z,97858.52
2019-02-21T22:41:13.978Z,97851.41
2019-02-21T22:43:45.918Z,97858.47
2019-02-21T22:46:17.070Z,97865.55
2019-02-21T22:48:48.049Z,97863.22
2019-02-21T22:51:20.015Z,97868.19
2019-02-21T22:53:51.333Z,97866.25
2019-02-21T22:56:22.792Z,97872.36
2019-02-21T22:58:53.770Z,97872.92
2019-02-21T23:01:46.176Z,97877.84
2019-02-21T23:05:19.846Z,97880.53
2019-02-21T23:08:09.534Z,97870.51
2019-02-21T23:10:41.795Z,97886.62
2019-02-21T23:13:13.358Z,97879.33
2019-02-21T23:15:44.491Z,97879.06
2019-02-21T23:18:15.581Z,97884.91
2019-02-21T23:20:46.942Z,97887.19
2019-02-21T23:23:18.338Z,97888.77
2019-02-21T23:25:49.319Z,97887.59
2019-02-21T23:28:20.348Z,97889.55
2019-02-21T23:30:51.374Z,97892.50
2019-02-21T23:33:24.546Z,97891.39
2019-02-21T23:35:55.512Z,97889.95
2019-02-21T23:38:26.853Z,97889.46
2019-02-21T23:40:58.209Z,97886.25
2019-02-21T23:43:29.340Z,97888.84
2019-02-21T23:46:00.405Z,97879.38
2019-02-21T23:48:31.387Z,97873.80
2019-02-21T23:51:02.472Z,97870.67
2019-02-21T23:53:34.003Z,97875.60
2019-02-21T23:56:05.289Z,97880.93
2019-02-21T23:58:36.363Z,97880.55
